TimePDT,TemperatureF,Dew PointF,Humidity,Sea Level PressureIn,VisibilityMPH,Wind Direction,Wind SpeedMPH,Gust SpeedMPH,PrecipitationIn,Events,Conditions,WindDirDegrees,DateUTC
12:56 AM,54.0,51.1,90,30.06,10.0,NW,3.5,-,N/A,,Overcast,310,2013-03-28 07:56:00
1:56 AM,54.0,51.1,90,30.06,10.0,Calm,Calm,-,N/A,,Overcast,0,2013-03-28 08:56:00
2:56 AM,53.1,51.1,93,30.05,10.0,NNW,5.8,-,N/A,,Overcast,330,2013-03-28 09:56:00
3:56 AM,53.1,51.1,93,30.03,10.0,NW,3.5,-,N/A,,Overcast,310,2013-03-28 10:56:00
4:56 AM,52.0,50.0,93,30.03,10.0,North,4.6,-,N/A,,Overcast,10,2013-03-28 11:56:00
5:48 AM,51.8,51.8,100,30.03,10.0,Calm,Calm,-,N/A,,Overcast,0,2013-03-28 12:48:00
5:56 AM,52.0,51.1,97,30.03,10.0,North,3.5,-,N/A,,Overcast,360,2013-03-28 12:56:00
6:56 AM,52.0,51.1,97,30.04,10.0,NNW,5.8,-,N/A,,Overcast,340,2013-03-28 13:56:00
7:40 AM,53.6,51.8,94,30.06,10.0,NNW,6.9,-,N/A,,Overcast,330,2013-03-28 14:40:00
7:56 AM,53.1,51.1,93,30.07,10.0,North,5.8,-,N/A,,Overcast,360,2013-03-28 14:56:00
8:56 AM,55.0,51.1,86,30.08,10.0,NNW,5.8,-,N/A,,Overcast,340,2013-03-28 15:56:00
9:56 AM,55.9,52.0,87,30.08,10.0,Calm,Calm,-,N/A,,Overcast,0,2013-03-28 16:56:00
10:03 AM,57.2,53.6,88,30.08,10.0,Variable,3.5,-,N/A,,Mostly Cloudy,0,2013-03-28 17:03:00
10:18 AM,57.2,51.8,82,30.08,10.0,WNW,3.5,-,N/A,,Scattered Clouds,300,2013-03-28 17:18:00
10:56 AM,62.1,53.1,72,30.08,10.0,Calm,Calm,-,N/A,,Mostly Cloudy,0,2013-03-28 17:56:00
11:56 AM,64.0,53.1,67,30.06,10.0,Variable,4.6,-,N/A,,Mostly Cloudy,0,2013-03-28 18:56:00
12:56 PM,64.0,55.0,73,30.07,10.0,SW,12.7,-,N/A,,Mostly Cloudy,230,2013-03-28 19:56:00
1:56 PM,59.0,53.1,81,30.08,10.0,NW,13.8,-,0.00,,Scattered Clouds,310,2013-03-28 20:56:00
2:56 PM,63.0,53.1,70,30.06,10.0,NW,18.4,-,N/A,,Mostly Cloudy,320,2013-03-28 21:56:00
3:56 PM,64.0,54.0,70,30.06,10.0,NNW,9.2,-,N/A,,Mostly Cloudy,330,2013-03-28 22:56:00
4:56 PM,66.0,53.1,63,30.04,10.0,WSW,11.5,-,N/A,,Mostly Cloudy,250,2013-03-28 23:56:00
5:56 PM,66.9,53.1,61,30.03,10.0,Calm,Calm,-,N/A,,Scattered Clouds,0,2013-03-29 00:56:00
6:56 PM,60.1,53.1,78,30.05,10.0,WNW,5.8,-,N/A,,Scattered Clouds,290,2013-03-29 01:56:00
7:56 PM,55.0,51.1,86,30.07,10.0,NNW,9.2,-,N/A,,Clear,330,2013-03-29 02:56:00
8:56 PM,54.0,51.1,90,30.08,10.0,NNW,5.8,-,N/A,,Clear,330,2013-03-29 03:56:00
9:56 PM,52.0,51.1,97,30.08,10.0,NNW,3.5,-,N/A,,Clear,330,2013-03-29 04:56:00
10:56 PM,52.0,50.0,93,30.08,10.0,Calm,Calm,-,N/A,,Clear,0,2013-03-29 05:56:00
11:56 PM,51.1,48.9,92,30.08,10.0,Calm,Calm,-,N/A,,Clear,0,2013-03-29 06:56:00